Time;durP1;ratioP1;P1;durP2;ratioP2;P2;SDS_P1;SDS_P2;PMS_P1;PMS_P2;Temp;Humidity;BMP_temperature;BMP_pressure;BME280_temperature;BME280_humidity;BME280_pressure;Samples;Min_cycle;Max_cycle;Signal;HPM_P1;HPM_P2
2022/02/14 09:16:49;;;;;;;11.23;7.20;;;;;;;21.62;22.58;97888.22;6863881;28;20196;-86
2022/02/14 09:20:11;;;;;;;10.53;6.70;;;;;;;21.55;22.47;97886.97;6863020;28;20757;-84
2022/02/14 09:23:33;;;;;;;11.43;5.60;;;;;;;21.00;23.03;97887.75;6854409;28;20706;-85
2022/02/14 09:26:54;;;;;;;9.00;5.20;;;;;;;19.81;24.35;97889.78;6839335;28;20216;-85
2022/02/14 09:30:16;;;;;;;8.30;6.13;;;;;;;18.80;25.55;97880.56;6841685;28;20264;-86
2022/02/14 09:33:39;;;;;;;8.73;4.10;;;;;;;18.47;24.37;97882.03;6841766;29;20240;-85
2022/02/14 09:37:01;;;;;;;8.60;5.47;;;;;;;18.94;24.95;97865.19;6842117;29;20689;-85
2022/02/14 09:40:23;;;;;;;8.77;4.30;;;;;;;18.73;25.15;97863.63;6842055;28;20304;-86
2022/02/14 09:43:46;;;;;;;6.97;5.07;;;;;;;18.19;25.90;97873.59;6840788;29;20206;-87
2022/02/14 09:47:08;;;;;;;7.00;5.03;;;;;;;18.08;26.03;97872.81;6841418;29;20206;-85
2022/02/14 09:50:33;;;;;;;7.73;3.93;;;;;;;16.96;26.43;97863.16;6843100;28;20229;-87
2022/02/14 09:53:54;;;;;;;4.97;3.50;;;;;;;17.61;27.11;97866.00;6841435;29;20579;-85
2022/02/14 09:57:18;;;;;;;8.80;3.97;;;;;;;17.68;26.58;97869.31;6842274;29;20225;-85
2022/02/14 10:00:39;;;;;;;7.53;3.63;;;;;;;17.40;27.46;97869.81;6840423;28;20250;-83
2022/02/14 10:04:01;;;;;;;5.93;3.77;;;;;;;16.93;27.82;97858.25;6851332;28;20637;-84
2022/02/14 10:07:24;;;;;;;5.83;3.23;;;;;;;16.80;27.43;97780.63;6870919;28;20212;-84
2022/02/14 10:10:46;;;;;;;10.27;5.30;;;;;;;17.16;29.22;97858.56;6869109;28;20232;-83
2022/02/14 10:14:15;;;;;;;8.63;3.93;;;;;;;17.21;28.45;97860.50;6867832;28;20323;-84
2022/02/14 10:17:41;;;;;;;6.20;3.00;;;;;;;17.48;27.65;97861.09;6868683;28;20692;-87
2022/02/14 10:21:21;;;;;;;6.80;4.40;;;;;;;17.80;26.86;97867.13;6868652;28;20228;-85
2022/02/14 10:24:44;;;;;;;3.93;2.53;;;;;;;17.14;26.84;97835.41;6868963;28;20209;-87
2022/02/14 10:28:14;;;;;;;5.03;3.17;;;;;;;17.34;27.41;97873.59;6867489;28;20216;-85
2022/02/14 10:31:40;;;;;;;3.93;3.13;;;;;;;17.39;27.31;97877.16;6867231;28;20221;-84
2022/02/14 10:35:05;;;;;;;6.47;3.10;;;;;;;17.41;27.88;97876.91;6868251;28;20307;-85
2022/02/14 10:38:26;;;;;;;6.17;3.07;;;;;;;16.96;27.60;97835.94;6868774;28;20671;-84
2022/02/14 10:41:51;;;;;;;5.93;3.20;;;;;;;17.51;28.18;97872.28;6865745;28;20228;-84
2022/02/14 10:45:15;;;;;;;5.73;2.73;;;;;;;17.80;27.25;97864.38;6863189;28;20213;-84
2022/02/14 10:48:41;;;;;;;6.50;3.30;;;;;;;17.75;27.46;97857.00;6854912;28;20369;-83
2022/02/14 10:52:04;;;;;;;6.60;3.50;;;;;;;17.80;27.13;97853.47;6885137;28;20264;-85
2022/02/14 10:55:29;;;;;;;6.50;3.17;;;;;;;18.01;27.68;97850.44;6870309;28;20556;-84
2022/02/14 10:59:08;;;;;;;5.53;2.97;;;;;;;17.87;27.63;97843.91;6866384;28;20224;-84
2022/02/14 11:02:30;;;;;;;5.57;2.63;;;;;;;17.46;29.07;97846.94;6866132;28;20239;-84
2022/02/14 11:05:52;;;;;;;5.63;2.90;;;;;;;17.61;29.51;97841.47;6869449;28;20216;-85
2022/02/14 11:09:14;;;;;;;6.87;3.27;;;;;;;17.59;29.59;97841.78;6866613;28;20212;-83
2022/02/14 11:12:40;;;;;;;6.27;3.10;;;;;;;17.52;30.40;97841.19;6867197;28;20365;-84
2022/02/14 11:16:04;;;;;;;7.57;3.27;;;;;;;18.29;29.42;97835.38;6864712;28;20216;-83
2022/02/14 11:19:38;;;;;;;5.67;2.67;;;;;;;18.00;29.12;97818.00;6838695;29;20225;-87
2022/02/14 11:23:01;;;;;;;5.37;2.87;;;;;;;18.01;29.13;97760.44;6838106;28;20233;-84
2022/02/14 11:26:30;;;;;;;4.70;2.97;;;;;;;18.58;28.38;97822.75;6838455;29;20576;-84
2022/02/14 11:29:55;;;;;;;5.57;2.70;;;;;;;18.28;29.57;97811.91;6840326;29;20193;-85
2022/02/14 11:33:22;;;;;;;4.63;2.57;;;;;;;17.75;31.46;97823.50;6840556;28;20241;-82
2022/02/14 11:36:59;;;;;;;6.13;2.67;;;;;;;18.26;30.67;97814.09;6854925;28;20204;-84
2022/02/14 11:40:35;;;;;;;5.33;2.30;;;;;;;17.93;31.84;97812.00;6867072;28;20661;-83
2022/02/14 11:44:20;;;;;;;4.77;2.53;;;;;;;17.80;32.64;97809.84;6866260;28;20221;-84
2022/02/14 11:47:41;;;;;;;4.37;2.47;;;;;;;17.85;33.39;97802.47;6866828;28;20200;-83
2022/02/14 11:51:09;;;;;;;5.50;2.37;;;;;;;17.58;34.03;97773.91;6866463;28;20225;-84
2022/02/14 11:54:33;;;;;;;5.50;2.37;;;;;;;17.53;34.01;97791.06;6866727;28;20281;-83
2022/02/14 11:57:55;;;;;;;3.93;3.03;;;;;;;17.44;34.26;97729.19;6842005;28;20220;-84
2022/02/14 12:01:21;;;;;;;3.83;2.27;;;;;;;17.29;35.19;97811.72;6871222;28;20229;-84
2022/02/14 12:04:47;;;;;;;7.37;3.77;;;;;;;17.27;35.52;97791.31;6871415;28;20201;-84
2022/02/14 12:08:11;;;;;;;3.10;2.27;;;;;;;17.60;34.91;97797.06;6866321;28;20197;-84
2022/02/14 12:11:49;;;;;;;4.17;2.10;;;;;;;17.74;34.63;97775.50;6865387;28;20226;-84
2022/02/14 12:22:56;;;;;;;3.67;2.30;;;;;;;17.08;35.85;97798.38;6871025;28;20249;-83
2022/02/14 12:26:21;;;;;;;3.37;2.27;;;;;;;17.00;36.38;97801.63;6872254;28;20273;-84
2022/02/14 12:29:43;;;;;;;4.47;2.30;;;;;;;16.91;36.43;97798.63;6893875;28;20211;-84
2022/02/14 12:33:05;;;;;;;3.70;2.20;;;;;;;17.00;35.88;97769.78;6896357;28;20264;-84
2022/02/14 12:36:26;;;;;;;3.27;2.50;;;;;;;16.97;36.45;97796.72;6870358;28;20206;-84
2022/02/14 12:39:50;;;;;;;2.93;2.17;;;;;;;17.45;35.75;97794.34;6841681;29;20223;-83
2022/02/14 12:43:21;;;;;;;4.23;2.20;;;;;;;17.24;34.99;97738.19;6841488;28;20231;-83
2022/02/14 12:46:43;;;;;;;3.60;2.93;;;;;;;17.09;36.32;97789.09;6842070;29;20555;-84
2022/02/14 12:50:10;;;;;;;4.80;2.33;;;;;;;16.75;36.68;97791.50;6842085;29;20202;-84
2022/02/14 12:53:32;;;;;;;2.67;2.00;;;;;;;16.72;36.71;97755.84;6867529;28;20209;-86
2022/02/14 12:56:53;;;;;;;2.20;2.10;;;;;;;17.14;36.20;97786.38;6869110;28;20678;-84
2022/02/14 13:00:28;;;;;;;3.50;2.10;;;;;;;17.38;35.63;97792.97;6869037;28;20227;-84
2022/02/14 13:03:55;;;;;;;2.90;2.07;;;;;;;16.34;37.74;97797.06;6846582;29;20205;-85
2022/02/14 13:07:17;;;;;;;2.70;1.93;;;;;;;16.80;36.91;97783.34;6848161;29;20249;-84
2022/02/14 13:10:43;;;;;;;2.13;1.90;;;;;;;16.99;36.58;97772.78;6847828;28;20252;-84
2022/02/14 13:14:05;;;;;;;4.10;2.23;;;;;;;17.03;36.93;97765.69;6847633;28;20233;-83
2022/02/14 13:17:28;;;;;;;4.10;2.37;;;;;;;17.21;35.50;97707.97;6847829;28;20309;-84
2022/02/14 13:20:59;;;;;;;3.73;2.80;;;;;;;17.48;36.23;97758.38;6868416;28;20319;-84
2022/02/14 13:24:22;;;;;;;5.37;2.67;;;;;;;17.57;35.75;97761.38;6874827;28;20689;-83
2022/02/14 13:27:44;;;;;;;2.77;2.13;;;;;;;17.30;36.02;97768.97;6875467;28;20216;-83
2022/02/14 13:31:05;;;;;;;2.47;2.10;;;;;;;16.89;36.54;97712.84;6875588;28;20258;-83
2022/02/14 13:34:28;;;;;;;6.90;3.03;;;;;;;17.98;35.30;97761.00;6874812;28;20244;-83
2022/02/14 13:37:53;;;;;;;2.67;1.60;;;;;;;17.80;35.06;97758.84;6883008;28;20244;-81
2022/02/14 13:41:26;;;;;;;2.80;2.07;;;;;;;17.27;36.56;97755.91;6884153;28;20822;-82
2022/02/14 13:44:57;;;;;;;4.43;2.57;;;;;;;17.72;35.82;97761.31;6889002;28;20236;-84
2022/02/14 13:48:20;;;;;;;2.17;1.97;;;;;;;18.28;34.87;97758.16;6893464;28;20205;-88
2022/02/14 13:51:44;;;;;;;3.07;2.00;;;;;;;17.47;36.01;97725.94;6889314;28;20221;-84
2022/02/14 13:55:07;;;;;;;3.57;2.23;;;;;;;16.99;37.16;97757.22;6889719;28;20216;-83
2022/02/14 13:58:29;;;;;;;2.30;1.80;;;;;;;17.52;36.50;97748.53;6889971;28;20217;-85
2022/02/14 14:01:51;;;;;;;2.73;2.30;;;;;;;17.24;36.86;97761.88;6873707;28;20222;-84
2022/02/14 14:05:18;;;;;;;2.77;2.17;;;;;;;17.09;37.33;97759.16;6870415;28;20262;-84
2022/02/14 14:08:41;;;;;;;1.80;1.70;;;;;;;17.02;37.91;97744.97;6871084;28;20295;-84
2022/02/14 14:12:09;;;;;;;3.20;1.90;;;;;;;17.36;37.37;97759.69;6870920;28;20245;-84
2022/02/14 14:15:31;;;;;;;2.20;1.70;;;;;;;17.08;37.16;97769.25;6869029;28;20234;-84
2022/02/14 14:18:53;;;;;;;5.77;2.20;;;;;;;17.07;37.42;97743.09;6870102;28;20206;-85
2022/02/14 14:22:15;;;;;;;2.40;2.00;;;;;;;17.30;37.32;97742.56;6868244;28;20717;-84
2022/02/14 14:25:38;;;;;;;3.40;1.57;;;;;;;17.44;37.11;97764.63;6867207;28;20228;-84
2022/02/14 14:29:00;;;;;;;2.20;1.80;;;;;;;17.21;36.66;97757.78;6866876;28;20291;-84
2022/02/14 14:32:23;;;;;;;4.43;2.30;;;;;;;17.32;37.04;97753.97;6867576;28;20225;-84
2022/02/14 14:35:45;;;;;;;3.13;2.03;;;;;;;17.03;38.11;97773.84;6866237;28;20229;-84
2022/02/14 14:39:07;;;;;;;3.93;2.23;;;;;;;16.85;38.04;97744.41;6867332;28;20227;-83
2022/02/14 14:42:30;;;;;;;2.73;2.23;;;;;;;16.89;38.01;97764.59;6867537;28;20236;-83
2022/02/14 14:45:51;;;;;;;6.80;1.80;;;;;;;16.35;38.61;97776.94;6866532;28;20216;-83
2022/02/14 14:49:13;;;;;;;4.07;1.83;;;;;;;16.98;38.93;97777.38;6866312;28;20223;-83
2022/02/14 14:52:35;;;;;;;3.47;2.43;;;;;;;17.32;38.90;97778.50;6867062;28;20256;-86
2022/02/14 14:55:56;;;;;;;3.23;2.57;;;;;;;17.28;39.16;97777.41;6865278;28;20227;-81
2022/02/14 14:59:19;;;;;;;2.60;2.40;;;;;;;17.50;39.22;97767.09;6868952;28;20271;-86
2022/02/14 15:02:41;;;;;;;5.10;3.00;;;;;;;17.05;40.05;97763.53;6868473;28;20229;-84
2022/02/14 15:06:03;;;;;;;7.17;2.30;;;;;;;16.39;41.14;97726.38;6866296;28;20205;-88
2022/02/14 15:09:26;;;;;;;3.00;2.10;;;;;;;16.75;40.72;97734.34;6869610;28;20201;-80
2022/02/14 15:12:47;;;;;;;3.97;2.27;;;;;;;17.03;40.30;97799.19;6870079;28;20280;-85
2022/02/14 15:16:11;;;;;;;2.93;1.90;;;;;;;16.36;41.57;97789.44;6871077;28;20268;-83
2022/02/14 15:19:34;;;;;;;3.73;2.17;;;;;;;16.89;41.39;97794.53;6875377;28;20213;-80
2022/02/14 15:22:56;;;;;;;1.83;1.73;;;;;;;17.14;39.83;97780.94;6885549;28;20233;-79
2022/02/14 15:26:18;;;;;;;3.00;2.10;;;;;;;17.06;41.13;97781.50;6877067;28;20208;-81
2022/02/14 15:29:40;;;;;;;3.33;1.97;;;;;;;17.12;40.12;97775.78;6866687;28;20239;-82
2022/02/14 15:33:03;;;;;;;3.00;2.17;;;;;;;16.60;41.68;97782.47;6865738;28;20227;-81
2022/02/14 15:36:27;;;;;;;2.73;2.30;;;;;;;16.87;40.88;97774.94;6865053;28;20216;-81
2022/02/14 15:39:48;;;;;;;2.63;2.43;;;;;;;16.58;41.82;97771.06;6849079;28;20234;-81
2022/02/14 15:43:10;;;;;;;2.37;2.17;;;;;;;16.45;42.27;97763.41;6837276;28;20236;-80
2022/02/14 15:46:32;;;;;;;3.73;2.77;;;;;;;16.35;41.80;97755.16;6839105;28;20207;-81
2022/02/14 15:49:55;;;;;;;3.23;2.87;;;;;;;16.58;42.09;97771.06;6865783;28;20210;-81
2022/02/14 15:53:16;;;;;;;4.83;2.40;;;;;;;16.55;42.15;97766.13;6866034;28;20228;-80
2022/02/14 15:56:39;;;;;;;3.20;2.43;;;;;;;16.55;42.00;97771.56;6864671;28;20217;-82
2022/02/14 16:00:01;;;;;;;2.93;2.17;;;;;;;16.44;42.50;97781.63;6865822;28;20205;-80
2022/02/14 16:03:24;;;;;;;8.73;7.80;;;;;;;15.93;43.17;97785.16;6853720;28;20256;-81
2022/02/14 16:06:47;;;;;;;5.17;3.17;;;;;;;16.15;42.85;97774.16;6871164;28;20209;-81
2022/02/14 16:10:09;;;;;;;8.77;7.00;;;;;;;16.09;42.67;97742.53;6869617;28;20219;-82
2022/02/14 16:13:32;;;;;;;3.23;2.53;;;;;;;15.78;43.62;97732.63;6871552;28;20731;-81
2022/02/14 16:16:54;;;;;;;4.40;3.00;;;;;;;15.79;44.53;97761.44;6866376;28;20209;-81
2022/02/14 16:20:16;;;;;;;5.33;2.77;;;;;;;16.08;44.20;97785.25;6843880;28;20291;-81
2022/02/14 16:23:39;;;;;;;2.97;2.50;;;;;;;16.22;44.46;97772.00;6842316;28;20216;-81
2022/02/14 16:27:00;;;;;;;2.37;2.13;;;;;;;16.21;43.22;97754.03;6865354;28;20694;-81
2022/02/14 16:30:22;;;;;;;2.87;1.90;;;;;;;15.04;45.90;97769.81;6869089;28;20687;-80
2022/02/14 16:33:43;;;;;;;2.47;1.90;;;;;;;14.81;46.43;97742.22;6867761;28;20260;-81
2022/02/14 16:37:05;;;;;;;2.17;1.97;;;;;;;15.58;44.77;97765.91;6860779;28;20287;-81
2022/02/14 16:40:28;;;;;;;2.40;2.00;;;;;;;16.33;43.47;97811.75;6868892;28;20566;-80
2022/02/14 16:43:52;;;;;;;2.90;2.60;;;;;;;16.24;43.91;97821.50;6867954;28;20212;-81
2022/02/14 16:47:14;;;;;;;3.13;2.73;;;;;;;15.95;43.30;97818.34;6867820;28;20216;-81
2022/02/14 16:50:36;;;;;;;4.90;3.60;;;;;;;16.06;43.16;97825.50;6870300;28;20320;-81
2022/02/14 16:53:57;;;;;;;2.57;2.20;;;;;;;15.96;42.77;97846.34;6887443;28;20235;-80
2022/02/14 16:57:22;;;;;;;6.23;4.73;;;;;;;15.88;43.42;97863.97;6894300;28;20213;-81
2022/02/14 17:00:43;;;;;;;2.00;1.90;;;;;;;15.73;43.69;97846.72;6894198;28;20239;-83
2022/02/14 17:04:05;;;;;;;2.03;1.93;;;;;;;15.29;45.19;97865.06;6892661;28;20221;-81
2022/02/14 17:07:27;;;;;;;2.00;1.90;;;;;;;15.23;45.23;97857.94;6890159;28;20211;-81
2022/02/14 17:10:49;;;;;;;1.83;1.73;;;;;;;15.58;44.61;97874.59;6867274;28;20232;-81
2022/02/14 17:14:12;;;;;;;2.10;1.90;;;;;;;15.40;44.83;97887.75;6867655;28;20231;-81
2022/02/14 17:17:34;;;;;;;3.30;3.00;;;;;;;15.68;44.68;97879.31;6865716;28;20211;-80
2022/02/14 17:20:56;;;;;;;2.83;1.70;;;;;;;14.86;46.36;97864.38;6867649;28;20233;-81
2022/02/14 17:24:18;;;;;;;2.23;1.60;;;;;;;15.25;45.58;97884.84;6868640;28;20193;-81
2022/02/14 17:27:40;;;;;;;2.20;2.00;;;;;;;15.53;45.24;97896.31;6869158;28;20580;-81
2022/02/14 17:31:03;;;;;;;1.83;1.73;;;;;;;15.32;45.64;97904.47;6869701;28;20332;-82
2022/02/14 17:34:26;;;;;;;2.50;2.30;;;;;;;15.45;45.64;97904.13;6870278;28;20231;-81
2022/02/14 17:37:47;;;;;;;3.80;2.90;;;;;;;15.02;46.08;97875.13;6871150;28;20563;-81
2022/02/14 17:41:09;;;;;;;4.97;2.70;;;;;;;15.14;46.77;97921.97;6871825;28;20248;-82
2022/02/14 17:44:30;;;;;;;2.47;2.27;;;;;;;15.07;46.95;97932.19;6871300;28;20215;-81
2022/02/14 17:47:53;;;;;;;2.87;2.53;;;;;;;15.16;48.63;97924.44;6873899;28;20209;-81
2022/02/14 17:51:15;;;;;;;4.47;2.90;;;;;;;15.01;50.18;97927.78;6874167;28;20237;-82
2022/02/14 17:54:37;;;;;;;3.87;3.10;;;;;;;15.28;49.99;97946.81;6873156;28;20262;-82
2022/02/14 17:57:58;;;;;;;4.20;3.00;;;;;;;14.57;52.64;97966.03;6874811;28;20209;-81
2022/02/14 18:01:20;;;;;;;5.17;3.67;;;;;;;14.74;52.33;97958.66;6875254;28;20244;-81
2022/02/14 18:04:43;;;;;;;5.07;4.00;;;;;;;14.07;53.25;97887.47;6869777;28;20224;-83
2022/02/14 18:08:05;;;;;;;4.57;3.43;;;;;;;14.68;53.11;97967.81;6849496;29;20197;-86
2022/02/14 18:11:27;;;;;;;5.37;3.87;;;;;;;14.71;53.33;97970.84;6846588;28;20251;-82
2022/02/14 18:14:48;;;;;;;4.97;4.10;;;;;;;14.62;53.56;97980.47;6850622;29;20229;-82
2022/02/14 18:18:10;;;;;;;5.70;3.43;;;;;;;14.97;52.42;97980.94;6848125;29;20221;-82
2022/02/14 18:21:34;;;;;;;3.90;3.30;;;;;;;14.53;54.29;97987.41;6845505;29;20227;-83
2022/02/14 18:24:56;;;;;;;4.87;3.70;;;;;;;14.71;53.53;97980.88;6854364;28;20238;-82
2022/02/14 18:28:17;;;;;;;5.70;4.50;;;;;;;14.08;54.56;97916.22;6874647;28;20214;-83
2022/02/14 18:31:39;;;;;;;4.70;4.10;;;;;;;14.51;53.75;97937.19;6873418;28;20231;-82
2022/02/14 18:35:01;;;;;;;5.13;3.63;;;;;;;14.46;54.03;97965.03;6873559;28;20234;-82
2022/02/14 18:38:24;;;;;;;6.57;4.30;;;;;;;14.53;54.17;97973.00;6882812;28;20300;-82
2022/02/14 18:41:46;;;;;;;5.50;4.70;;;;;;;14.77;53.46;97985.28;6893758;28;20227;-83
2022/02/14 18:45:10;;;;;;;5.00;4.60;;;;;;;14.31;54.39;97964.84;6875617;28;20210;-83
2022/02/14 18:48:31;;;;;;;5.50;4.03;;;;;;;14.52;54.17;97955.09;6873349;28;20685;-86
2022/02/14 18:51:53;;;;;;;4.67;3.73;;;;;;;14.76;52.92;97976.31;6873322;28;20699;-83
2022/02/14 18:55:16;;;;;;;3.90;3.60;;;;;;;14.73;53.16;97978.72;6873844;28;20297;-86
2022/02/14 18:58:38;;;;;;;4.80;4.03;;;;;;;14.37;53.83;97971.97;6870361;28;20279;-83
2022/02/14 19:02:03;;;;;;;4.30;3.80;;;;;;;14.47;54.03;97985.69;6871240;28;20277;-82
2022/02/14 19:05:25;;;;;;;6.27;4.07;;;;;;;14.36;54.22;97978.47;6873619;28;20305;-84
2022/02/14 19:08:47;;;;;;;4.27;3.80;;;;;;;14.37;54.42;97985.53;6869702;28;20252;-83
2022/02/14 19:12:10;;;;;;;4.50;4.10;;;;;;;14.15;54.56;97987.34;6868540;28;20230;-83
2022/02/14 19:15:32;;;;;;;6.10;5.50;;;;;;;13.65;56.21;97966.72;6872042;28;20240;-83
2022/02/14 19:18:54;;;;;;;6.60;4.80;;;;;;;14.03;55.63;97985.75;6869612;28;20214;-83
2022/02/14 19:22:15;;;;;;;5.93;5.20;;;;;;;14.14;55.38;97985.69;6868985;28;20726;-82
2022/02/14 19:25:40;;;;;;;5.40;4.70;;;;;;;14.25;54.43;97992.97;6869746;28;20219;-82
2022/02/14 19:29:03;;;;;;;7.20;5.10;;;;;;;13.94;55.58;97998.94;6869851;28;20213;-83
2022/02/14 19:32:25;;;;;;;5.70;5.17;;;;;;;14.22;54.37;98004.28;6869454;28;20235;-83
2022/02/14 19:35:46;;;;;;;4.57;4.10;;;;;;;13.99;51.89;97939.38;6867972;28;20235;-84
2022/02/14 19:39:08;;;;;;;2.50;2.30;;;;;;;14.23;51.24;97994.28;6874821;28;20289;-81
2022/02/14 19:42:30;;;;;;;2.60;2.37;;;;;;;14.30;50.20;98013.91;6872976;28;20245;-83
2022/02/14 19:45:53;;;;;;;2.43;2.30;;;;;;;14.34;49.72;97979.81;6868294;28;20215;-83
2022/02/14 19:49:15;;;;;;;2.60;2.30;;;;;;;14.51;48.56;98000.38;6868887;28;20216;-83
2022/02/14 19:52:37;;;;;;;2.20;2.10;;;;;;;14.64;48.56;98005.44;6868944;28;20225;-83
2022/02/14 19:55:59;;;;;;;2.20;2.10;;;;;;;14.54;49.26;98015.34;6868485;28;20235;-83
2022/02/14 19:59:20;;;;;;;1.77;1.67;;;;;;;14.57;48.24;98014.84;6869797;28;20265;-83
2022/02/14 20:02:44;;;;;;;1.70;1.60;;;;;;;14.29;48.82;98023.09;6867267;28;20721;-83
2022/02/14 20:06:06;;;;;;;1.63;1.60;;;;;;;14.06;49.15;98006.97;6868020;28;20222;-84
2022/02/14 20:09:28;;;;;;;1.80;1.70;;;;;;;14.21;49.42;98031.66;6868927;28;20230;-82
2022/02/14 20:12:50;;;;;;;2.70;2.50;;;;;;;13.80;50.45;98035.53;6869042;28;20240;-83
2022/02/14 20:16:11;;;;;;;4.40;3.80;;;;;;;13.91;50.39;98037.34;6867902;28;20231;-84
2022/02/14 20:19:35;;;;;;;2.87;2.67;;;;;;;14.15;49.88;98038.03;6867805;28;20216;-82
2022/02/14 20:22:56;;;;;;;1.70;1.60;;;;;;;14.19;49.68;98034.59;6870484;28;20229;-84
2022/02/14 20:26:19;;;;;;;3.57;1.73;;;;;;;13.96;50.24;98052.88;6889084;28;20216;-83
2022/02/14 20:29:41;;;;;;;1.90;1.80;;;;;;;13.88;51.03;98051.41;6868465;28;20216;-84
2022/02/14 20:33:03;;;;;;;1.90;1.80;;;;;;;14.00;50.72;98049.44;6868329;28;20317;-86
2022/02/14 20:36:26;;;;;;;1.70;1.60;;;;;;;13.65;51.96;98047.97;6867483;28;20234;-85
2022/02/14 20:39:47;;;;;;;1.70;1.60;;;;;;;13.61;52.06;98047.63;6868517;28;20221;-86
2022/02/14 20:43:09;;;;;;;2.23;2.03;;;;;;;13.66;51.41;98046.91;6869204;28;20236;-86
2022/02/14 20:46:31;;;;;;;1.87;1.77;;;;;;;14.01;50.89;98044.81;6868861;28;20223;-85
2022/02/14 20:49:53;;;;;;;1.87;1.77;;;;;;;14.05;51.28;98043.28;6867563;28;20204;-86
2022/02/14 20:53:16;;;;;;;1.80;1.70;;;;;;;13.92;52.03;98049.81;6867539;28;20227;-84
2022/02/14 20:56:37;;;;;;;2.00;1.90;;;;;;;13.71;52.27;98055.97;6867345;28;20233;-84
2022/02/14 20:59:59;;;;;;;1.73;1.63;;;;;;;13.69;53.05;98059.97;6869121;28;20220;-84
2022/02/14 21:03:21;;;;;;;1.97;1.80;;;;;;;13.96;52.45;98069.97;6881255;28;20238;-84
2022/02/14 21:06:43;;;;;;;1.90;1.80;;;;;;;13.66;53.31;98071.28;6889315;28;20210;-84
2022/02/14 21:10:09;;;;;;;2.93;2.70;;;;;;;13.34;54.50;98072.81;6887898;28;20220;-84
2022/02/14 21:13:30;;;;;;;2.30;2.20;;;;;;;13.45;53.81;98077.38;6887538;28;20203;-84
2022/02/14 21:16:52;;;;;;;1.90;1.70;;;;;;;13.34;54.75;98080.94;6889102;28;20217;-85
2022/02/14 21:20:17;;;;;;;3.50;3.20;;;;;;;13.76;53.69;98088.53;6888277;28;20218;-84
2022/02/14 21:23:40;;;;;;;2.53;2.33;;;;;;;13.91;53.04;98077.16;6881014;28;20574;-83
2022/02/14 21:27:03;;;;;;;2.40;2.20;;;;;;;13.25;55.85;98085.09;6870076;28;20355;-83
2022/02/14 21:30:25;;;;;;;3.27;2.30;;;;;;;13.01;56.32;98059.97;6891642;28;20209;-83
2022/02/14 21:33:47;;;;;;;2.37;2.17;;;;;;;13.10;56.19;98079.38;6895436;28;20239;-85
2022/02/14 21:37:08;;;;;;;2.33;2.13;;;;;;;13.10;55.38;98030.66;6896912;28;20261;-85
2022/02/14 21:40:31;;;;;;;2.20;2.10;;;;;;;13.40;55.38;98074.56;6896289;28;20229;-86
2022/02/14 21:43:54;;;;;;;2.50;2.30;;;;;;;13.15;55.17;98058.63;6896635;28;20205;-86
2022/02/14 21:47:16;;;;;;;2.20;2.10;;;;;;;13.12;55.87;98074.53;6887639;28;20210;-85
2022/02/14 21:50:37;;;;;;;2.10;2.00;;;;;;;12.87;56.66;98065.84;6867229;28;20322;-85
2022/02/14 21:53:59;;;;;;;2.23;2.10;;;;;;;12.86;56.98;98070.41;6875521;28;20416;-86
2022/02/14 21:57:20;;;;;;;2.27;1.90;;;;;;;13.21;55.96;98073.09;6868048;28;20233;-85
